sensor_id;sensor_type;location;lat;lon;timestamp;pressure;altitude;pressure_sealevel;temperature;humidity
76762;BME280;65705;51.032;13.790;2023-09-08T00:02:24;100959.78;;;18.59;72.32
76762;BME280;65705;51.032;13.790;2023-09-08T00:04:50;100957.91;;;18.53;72.61
76762;BME280;65705;51.032;13.790;2023-09-08T00:07:16;100956.31;;;18.58;72.43
76762;BME280;65705;51.032;13.790;2023-09-08T00:09:42;100963.66;;;18.56;72.36
76762;BME280;65705;51.032;13.790;2023-09-08T00:12:07;100960.81;;;18.58;72.50
76762;BME280;65705;51.032;13.790;2023-09-08T00:14:33;100956.13;;;18.60;72.28
76762;BME280;65705;51.032;13.790;2023-09-08T00:16:59;100964.31;;;18.58;72.08
76762;BME280;65705;51.032;13.790;2023-09-08T00:19:25;100961.84;;;18.57;72.46
76762;BME280;65705;51.032;13.790;2023-09-08T00:21:50;100959.44;;;18.62;72.10
76762;BME280;65705;51.032;13.790;2023-09-08T00:24:16;100960.31;;;18.69;71.95
76762;BME280;65705;51.032;13.790;2023-09-08T00:26:43;100958.78;;;18.60;72.28
76762;BME280;65705;51.032;13.790;2023-09-08T00:29:08;100953.66;;;18.58;72.42
76762;BME280;65705;51.032;13.790;2023-09-08T00:31:34;100956.25;;;18.52;72.33
76762;BME280;65705;51.032;13.790;2023-09-08T00:34:00;100952.69;;;18.45;72.90
76762;BME280;65705;51.032;13.790;2023-09-08T00:36:26;100948.66;;;18.49;72.56
76762;BME280;65705;51.032;13.790;2023-09-08T00:38:51;100954.91;;;18.41;72.86
76762;BME280;65705;51.032;13.790;2023-09-08T00:41:17;100960.47;;;18.46;72.78
76762;BME280;65705;51.032;13.790;2023-09-08T00:43:43;100960.59;;;18.38;72.91
76762;BME280;65705;51.032;13.790;2023-09-08T00:46:09;100950.78;;;18.39;73.10
76762;BME280;65705;51.032;13.790;2023-09-08T00:48:35;100956.91;;;18.39;72.79
76762;BME280;65705;51.032;13.790;2023-09-08T00:51:02;100958.94;;;18.37;72.65
76762;BME280;65705;51.032;13.790;2023-09-08T00:53:30;100957.66;;;18.33;72.87
76762;BME280;65705;51.032;13.790;2023-09-08T00:55:56;100959.31;;;18.34;72.95
76762;BME280;65705;51.032;13.790;2023-09-08T00:58:24;100956.66;;;18.34;72.77
76762;BME280;65705;51.032;13.790;2023-09-08T01:00:50;100965.66;;;18.33;72.56
76762;BME280;65705;51.032;13.790;2023-09-08T01:03:16;100960.59;;;18.38;72.33
76762;BME280;65705;51.032;13.790;2023-09-08T01:05:42;100961.91;;;18.28;72.77
76762;BME280;65705;51.032;13.790;2023-09-08T01:08:08;100969.88;;;18.28;72.86
76762;BME280;65705;51.032;13.790;2023-09-08T01:10:35;100971.53;;;18.14;73.61
76762;BME280;65705;51.032;13.790;2023-09-08T01:13:02;100964.13;;;18.10;73.84
76762;BME280;65705;51.032;13.790;2023-09-08T01:15:28;100965.41;;;18.14;73.56
76762;BME280;65705;51.032;13.790;2023-09-08T01:17:54;100959.91;;;18.15;73.74
76762;BME280;65705;51.032;13.790;2023-09-08T01:20:28;100965.63;;;18.12;74.08
76762;BME280;65705;51.032;13.790;2023-09-08T01:23:15;100957.19;;;18.09;73.96
76762;BME280;65705;51.032;13.790;2023-09-08T01:25:57;100959.03;;;18.08;73.79
76762;BME280;65705;51.032;13.790;2023-09-08T01:28:26;100964.53;;;18.07;73.71
76762;BME280;65705;51.032;13.790;2023-09-08T01:30:52;100967.53;;;18.04;73.70
76762;BME280;65705;51.032;13.790;2023-09-08T01:33:20;100959.69;;;17.96;73.93
76762;BME280;65705;51.032;13.790;2023-09-08T01:35:48;100956.00;;;17.97;74.00
76762;BME280;65705;51.032;13.790;2023-09-08T01:38:14;100957.38;;;17.92;74.09
76762;BME280;65705;51.032;13.790;2023-09-08T01:40:39;100958.97;;;17.87;74.21
76762;BME280;65705;51.032;13.790;2023-09-08T01:43:05;100950.44;;;17.92;74.02
76762;BME280;65705;51.032;13.790;2023-09-08T01:45:31;100957.09;;;17.87;74.31
76762;BME280;65705;51.032;13.790;2023-09-08T01:47:57;100960.03;;;17.92;73.77
76762;BME280;65705;51.032;13.790;2023-09-08T01:50:22;100958.13;;;17.86;74.20
76762;BME280;65705;51.032;13.790;2023-09-08T01:52:50;100955.09;;;17.89;74.17
76762;BME280;65705;51.032;13.790;2023-09-08T01:55:16;100953.19;;;17.83;74.20
76762;BME280;65705;51.032;13.790;2023-09-08T01:57:43;100947.06;;;17.83;74.33
76762;BME280;65705;51.032;13.790;2023-09-08T02:00:13;100947.41;;;17.80;74.16
76762;BME280;65705;51.032;13.790;2023-09-08T02:02:39;100951.16;;;17.85;73.92
76762;BME280;65705;51.032;13.790;2023-09-08T02:05:06;100947.50;;;17.86;73.61
76762;BME280;65705;51.032;13.790;2023-09-08T02:07:32;100947.13;;;17.89;73.29
76762;BME280;65705;51.032;13.790;2023-09-08T02:09:57;100951.16;;;17.85;73.48
76762;BME280;65705;51.032;13.790;2023-09-08T02:12:23;100950.16;;;17.86;73.26
76762;BME280;65705;51.032;13.790;2023-09-08T02:14:49;100942.19;;;17.86;73.16
76762;BME280;65705;51.032;13.790;2023-09-08T02:17:15;100947.59;;;17.78;72.80
76762;BME280;65705;51.032;13.790;2023-09-08T02:19:41;100949.16;;;17.87;72.56
76762;BME280;65705;51.032;13.790;2023-09-08T02:22:06;100942.56;;;17.83;72.60
76762;BME280;65705;51.032;13.790;2023-09-08T02:24:32;100945.50;;;17.74;72.83
76762;BME280;65705;51.032;13.790;2023-09-08T02:26:58;100947.25;;;17.67;73.16
76762;BME280;65705;51.032;13.790;2023-09-08T02:29:24;100948.53;;;17.56;73.65
76762;BME280;65705;51.032;13.790;2023-09-08T02:31:50;100945.69;;;17.58;73.68
76762;BME280;65705;51.032;13.790;2023-09-08T02:34:16;100947.25;;;17.67;73.22
76762;BME280;65705;51.032;13.790;2023-09-08T02:36:42;100948.25;;;17.66;73.03
76762;BME280;65705;51.032;13.790;2023-09-08T02:39:08;100949.91;;;17.67;72.95
76762;BME280;65705;51.032;13.790;2023-09-08T02:41:33;100948.63;;;17.63;72.95
76762;BME280;65705;51.032;13.790;2023-09-08T02:44:00;100944.88;;;17.72;72.18
76762;BME280;65705;51.032;13.790;2023-09-08T02:46:26;100945.50;;;17.59;72.80
76762;BME280;65705;51.032;13.790;2023-09-08T02:48:53;100946.41;;;17.52;73.01
76762;BME280;65705;51.032;13.790;2023-09-08T02:51:18;100942.13;;;17.51;73.11
76762;BME280;65705;51.032;13.790;2023-09-08T02:53:44;100943.75;;;17.52;73.47
76762;BME280;65705;51.032;13.790;2023-09-08T02:56:10;100946.16;;;17.47;73.53
76762;BME280;65705;51.032;13.790;2023-09-08T02:58:36;100945.28;;;17.46;73.41
76762;BME280;65705;51.032;13.790;2023-09-08T03:03:43;100935.69;;;17.45;73.33
76762;BME280;65705;51.032;13.790;2023-09-08T03:06:10;100942.75;;;17.38;73.56
76762;BME280;65705;51.032;13.790;2023-09-08T03:08:38;100942.63;;;17.32;73.66
76762;BME280;65705;51.032;13.790;2023-09-08T03:11:04;100942.63;;;17.32;73.75
76762;BME280;65705;51.032;13.790;2023-09-08T03:13:34;100938.41;;;17.23;74.57
76762;BME280;65705;51.032;13.790;2023-09-08T03:16:04;100932.34;;;17.14;74.75
76762;BME280;65705;51.032;13.790;2023-09-08T03:18:31;100925.59;;;17.12;75.00
76762;BME280;65705;51.032;13.790;2023-09-08T03:20:58;100927.06;;;17.14;74.75
76762;BME280;65705;51.032;13.790;2023-09-08T03:23:25;100912.34;;;17.12;75.04
76762;BME280;65705;51.032;13.790;2023-09-08T03:25:50;100916.16;;;17.09;75.24
76762;BME280;65705;51.032;13.790;2023-09-08T03:28:16;100918.00;;;17.09;75.27
76762;BME280;65705;51.032;13.790;2023-09-08T03:30:42;100920.19;;;17.05;75.34
76762;BME280;65705;51.032;13.790;2023-09-08T03:33:08;100916.16;;;17.09;75.28
76762;BME280;65705;51.032;13.790;2023-09-08T03:35:35;100919.72;;;17.02;75.45
76762;BME280;65705;51.032;13.790;2023-09-08T03:38:00;100919.53;;;17.03;75.31
76762;BME280;65705;51.032;13.790;2023-09-08T03:40:26;100923.84;;;17.04;74.82
76762;BME280;65705;51.032;13.790;2023-09-08T03:42:53;100922.31;;;17.10;74.30
76762;BME280;65705;51.032;13.790;2023-09-08T03:45:18;100912.78;;;17.01;74.78
76762;BME280;65705;51.032;13.790;2023-09-08T03:47:44;100916.53;;;17.06;74.29
76762;BME280;65705;51.032;13.790;2023-09-08T03:50:10;100916.59;;;16.98;74.64
76762;BME280;65705;51.032;13.790;2023-09-08T03:52:36;100913.78;;;17.00;74.86
76762;BME280;65705;51.032;13.790;2023-09-08T03:55:02;100914.59;;;17.00;74.97
76762;BME280;65705;51.032;13.790;2023-09-08T03:57:27;100918.09;;;17.01;74.83
76762;BME280;65705;51.032;13.790;2023-09-08T03:59:53;100917.63;;;16.97;74.68
76762;BME280;65705;51.032;13.790;2023-09-08T04:02:19;100910.00;;;16.94;74.57
76762;BME280;65705;51.032;13.790;2023-09-08T04:04:45;100917.91;;;17.02;74.36
76762;BME280;65705;51.032;13.790;2023-09-08T04:07:10;100906.38;;;16.95;74.80
76762;BME280;65705;51.032;13.790;2023-09-08T04:09:36;100912.03;;;16.92;74.67
76762;BME280;65705;51.032;13.790;2023-09-08T04:12:02;100911.84;;;16.94;74.62
76762;BME280;65705;51.032;13.790;2023-09-08T04:14:29;100913.84;;;16.92;74.76
76762;BME280;65705;51.032;13.790;2023-09-08T04:16:55;100910.47;;;16.83;74.97
76762;BME280;65705;51.032;13.790;2023-09-08T04:19:21;100912.28;;;16.82;75.20
76762;BME280;65705;51.032;13.790;2023-09-08T04:21:47;100920.06;;;16.84;75.59
76762;BME280;65705;51.032;13.790;2023-09-08T04:24:13;100916.88;;;16.89;75.31
76762;BME280;65705;51.032;13.790;2023-09-08T04:26:38;100912.19;;;16.91;75.25
76762;BME280;65705;51.032;13.790;2023-09-08T04:29:04;100927.41;;;16.97;74.52
76762;BME280;65705;51.032;13.790;2023-09-08T04:31:30;100929.78;;;16.92;74.67
76762;BME280;65705;51.032;13.790;2023-09-08T04:33:56;100924.72;;;16.82;75.03
76762;BME280;65705;51.032;13.790;2023-09-08T04:36:22;100924.34;;;16.85;75.34
76762;BME280;65705;51.032;13.790;2023-09-08T04:38:47;100925.81;;;16.88;75.01
76762;BME280;65705;51.032;13.790;2023-09-08T04:41:13;100929.31;;;16.88;74.99
76762;BME280;65705;51.032;13.790;2023-09-08T04:43:39;100925.16;;;16.85;74.75
76762;BME280;65705;51.032;13.790;2023-09-08T04:46:05;100937.78;;;16.83;74.70
76762;BME280;65705;51.032;13.790;2023-09-08T04:48:31;100926.19;;;16.84;74.65
76762;BME280;65705;51.032;13.790;2023-09-08T04:50:57;100931.03;;;16.81;74.96
76762;BME280;65705;51.032;13.790;2023-09-08T04:53:23;100924.91;;;16.80;75.14
76762;BME280;65705;51.032;13.790;2023-09-08T04:55:49;100937.72;;;16.92;74.95
76762;BME280;65705;51.032;13.790;2023-09-08T04:58:14;100932.06;;;16.95;74.63
76762;BME280;65705;51.032;13.790;2023-09-08T05:00:41;100932.69;;;16.97;74.76
76762;BME280;65705;51.032;13.790;2023-09-08T05:03:07;100937.63;;;17.00;74.48
76762;BME280;65705;51.032;13.790;2023-09-08T05:05:33;100934.47;;;17.04;74.60
76762;BME280;65705;51.032;13.790;2023-09-08T05:07:59;100933.44;;;17.05;74.26
76762;BME280;65705;51.032;13.790;2023-09-08T05:10:25;100934.75;;;17.09;74.09
76762;BME280;65705;51.032;13.790;2023-09-08T05:12:51;100936.50;;;17.17;73.83
76762;BME280;65705;51.032;13.790;2023-09-08T05:15:17;100942.72;;;17.24;73.33
76762;BME280;65705;51.032;13.790;2023-09-08T05:17:48;100941.19;;;17.29;73.12
76762;BME280;65705;51.032;13.790;2023-09-08T05:20:16;100936.78;;;17.36;73.08
76762;BME280;65705;51.032;13.790;2023-09-08T05:22:42;100932.78;;;17.40;72.45
76762;BME280;65705;51.032;13.790;2023-09-08T05:25:08;100936.69;;;17.44;72.40
76762;BME280;65705;51.032;13.790;2023-09-08T05:27:34;100940.28;;;17.51;72.27
76762;BME280;65705;51.032;13.790;2023-09-08T05:30:00;100935.28;;;17.56;72.15
76762;BME280;65705;51.032;13.790;2023-09-08T05:32:25;100933.97;;;17.67;71.58
76762;BME280;65705;51.032;13.790;2023-09-08T05:34:51;100936.06;;;17.71;71.29
76762;BME280;65705;51.032;13.790;2023-09-08T05:37:17;100941.75;;;17.83;70.88
76762;BME280;65705;51.032;13.790;2023-09-08T05:39:43;100942.19;;;17.86;70.42
76762;BME280;65705;51.032;13.790;2023-09-08T05:42:09;100944.84;;;17.86;70.56
76762;BME280;65705;51.032;13.790;2023-09-08T05:44:34;100940.63;;;17.92;70.64
76762;BME280;65705;51.032;13.790;2023-09-08T05:47:01;100943.56;;;17.97;70.81
76762;BME280;65705;51.032;13.790;2023-09-08T05:49:27;100944.63;;;18.03;70.78
76762;BME280;65705;51.032;13.790;2023-09-08T05:51:53;100941.41;;;18.07;70.82
76762;BME280;65705;51.032;13.790;2023-09-08T05:54:19;100941.84;;;18.11;70.34
76762;BME280;65705;51.032;13.790;2023-09-08T05:56:44;100942.84;;;18.24;70.12
76762;BME280;65705;51.032;13.790;2023-09-08T05:59:11;100943.94;;;18.30;69.69
76762;BME280;65705;51.032;13.790;2023-09-08T06:01:37;100950.97;;;18.37;69.76
76762;BME280;65705;51.032;13.790;2023-09-08T06:04:06;100946.75;;;18.43;70.00
76762;BME280;65705;51.032;13.790;2023-09-08T06:06:33;100940.03;;;18.47;69.63
76762;BME280;65705;51.032;13.790;2023-09-08T06:08:59;100943.13;;;18.50;69.70
76762;BME280;65705;51.032;13.790;2023-09-08T06:11:26;100939.94;;;18.55;69.56
76762;BME280;65705;51.032;13.790;2023-09-08T06:13:51;100940.94;;;18.54;69.42
76762;BME280;65705;51.032;13.790;2023-09-08T06:16:21;100941.00;;;18.60;69.16
76762;BME280;65705;51.032;13.790;2023-09-08T06:18:47;100938.16;;;18.62;69.10
76762;BME280;65705;51.032;13.790;2023-09-08T06:21:16;100937.38;;;18.68;68.89
76762;BME280;65705;51.032;13.790;2023-09-08T06:23:43;100926.94;;;18.66;69.02
76762;BME280;65705;51.032;13.790;2023-09-08T06:26:09;100924.34;;;18.73;68.95
76762;BME280;65705;51.032;13.790;2023-09-08T06:28:36;100922.13;;;18.76;69.12
76762;BME280;65705;51.032;13.790;2023-09-08T06:31:02;100924.00;;;18.82;69.27
76762;BME280;65705;51.032;13.790;2023-09-08T06:33:29;100919.94;;;18.86;69.44
76762;BME280;65705;51.032;13.790;2023-09-08T06:35:55;100927.72;;;18.88;69.13
76762;BME280;65705;51.032;13.790;2023-09-08T06:38:21;100929.84;;;18.92;69.07
76762;BME280;65705;51.032;13.790;2023-09-08T06:40:47;100929.88;;;18.99;68.93
76762;BME280;65705;51.032;13.790;2023-09-08T06:43:14;100925.41;;;19.06;68.89
76762;BME280;65705;51.032;13.790;2023-09-08T06:45:55;100922.78;;;19.13;68.71
76762;BME280;65705;51.032;13.790;2023-09-08T06:48:22;100932.88;;;19.17;68.68
76762;BME280;65705;51.032;13.790;2023-09-08T06:50:48;100935.78;;;19.22;68.25
76762;BME280;65705;51.032;13.790;2023-09-08T06:53:14;100936.00;;;19.27;68.36
76762;BME280;65705;51.032;13.790;2023-09-08T06:55:41;100932.13;;;19.30;68.10
76762;BME280;65705;51.032;13.790;2023-09-08T06:58:08;100935.50;;;19.38;68.05
76762;BME280;65705;51.032;13.790;2023-09-08T07:00:34;100929.97;;;19.40;67.92
76762;BME280;65705;51.032;13.790;2023-09-08T07:03:00;100925.91;;;19.44;67.77
76762;BME280;65705;51.032;13.790;2023-09-08T07:05:27;100923.28;;;19.50;67.78
76762;BME280;65705;51.032;13.790;2023-09-08T07:07:54;100932.16;;;19.57;67.81
76762;BME280;65705;51.032;13.790;2023-09-08T07:10:20;100931.13;;;19.65;67.60
76762;BME280;65705;51.032;13.790;2023-09-08T07:12:46;100921.75;;;19.69;67.24
76762;BME280;65705;51.032;13.790;2023-09-08T07:15:13;100927.09;;;19.75;67.16
76762;BME280;65705;51.032;13.790;2023-09-08T07:17:40;100929.16;;;19.80;66.93
76762;BME280;65705;51.032;13.790;2023-09-08T07:20:07;100927.56;;;19.85;66.93
76762;BME280;65705;51.032;13.790;2023-09-08T07:22:33;100923.47;;;19.89;67.27
76762;BME280;65705;51.032;13.790;2023-09-08T07:24:59;100927.63;;;19.99;66.99
76762;BME280;65705;51.032;13.790;2023-09-08T07:27:25;100929.66;;;20.03;66.61
76762;BME280;65705;51.032;13.790;2023-09-08T07:29:51;100929.69;;;20.10;66.56
76762;BME280;65705;51.032;13.790;2023-09-08T07:32:18;100918.22;;;20.16;66.37
76762;BME280;65705;51.032;13.790;2023-09-08T07:34:43;100930.59;;;20.23;66.08
76762;BME280;65705;51.032;13.790;2023-09-08T07:37:09;100925.06;;;20.31;65.69
76762;BME280;65705;51.032;13.790;2023-09-08T07:39:35;100927.75;;;20.38;65.19
76762;BME280;65705;51.032;13.790;2023-09-08T07:42:02;100923.03;;;20.46;65.01
76762;BME280;65705;51.032;13.790;2023-09-08T07:44:28;100922.03;;;20.54;64.75
76762;BME280;65705;51.032;13.790;2023-09-08T07:46:54;100922.66;;;20.62;64.49
76762;BME280;65705;51.032;13.790;2023-09-08T07:49:22;100928.19;;;20.67;64.56
76762;BME280;65705;51.032;13.790;2023-09-08T07:51:48;100924.50;;;20.75;64.20
76762;BME280;65705;51.032;13.790;2023-09-08T07:54:14;100927.16;;;20.81;64.15
76762;BME280;65705;51.032;13.790;2023-09-08T07:56:39;100926.16;;;20.89;63.98
76762;BME280;65705;51.032;13.790;2023-09-08T07:59:08;100925.53;;;20.93;63.82
76762;BME280;65705;51.032;13.790;2023-09-08T08:01:34;100926.19;;;21.02;63.68
76762;BME280;65705;51.032;13.790;2023-09-08T08:03:59;100929.25;;;21.06;63.67
76762;BME280;65705;51.032;13.790;2023-09-08T08:06:27;100932.31;;;21.16;63.13
76762;BME280;65705;51.032;13.790;2023-09-08T08:08:53;100936.63;;;21.23;63.01
76762;BME280;65705;51.032;13.790;2023-09-08T08:11:19;100933.13;;;21.29;62.75
76762;BME280;65705;51.032;13.790;2023-09-08T08:13:45;100932.69;;;21.39;62.13
76762;BME280;65705;51.032;13.790;2023-09-08T08:16:11;100928.97;;;21.46;61.91
76762;BME280;65705;51.032;13.790;2023-09-08T08:18:37;100933.69;;;21.51;61.58
76762;BME280;65705;51.032;13.790;2023-09-08T08:21:03;100919.47;;;21.63;61.69
76762;BME280;65705;51.032;13.790;2023-09-08T08:23:29;100922.53;;;21.73;60.95
76762;BME280;65705;51.032;13.790;2023-09-08T08:25:56;100916.38;;;21.79;60.71
76762;BME280;65705;51.032;13.790;2023-09-08T08:28:23;100922.06;;;21.89;60.42
76762;BME280;65705;51.032;13.790;2023-09-08T08:30:50;100911.34;;;21.96;60.29
76762;BME280;65705;51.032;13.790;2023-09-08T08:33:16;100913.59;;;21.99;59.89
76762;BME280;65705;51.032;13.790;2023-09-08T08:35:48;100913.53;;;22.12;59.57
76762;BME280;65705;51.032;13.790;2023-09-08T08:38:14;100902.41;;;22.15;59.33
76762;BME280;65705;51.032;13.790;2023-09-08T08:40:40;100901.91;;;22.25;59.18
76762;BME280;65705;51.032;13.790;2023-09-08T08:43:05;100900.06;;;22.32;59.09
76762;BME280;65705;51.032;13.790;2023-09-08T08:45:32;100908.41;;;22.42;58.59
76762;BME280;65705;51.032;13.790;2023-09-08T08:48:03;100904.88;;;22.48;58.37
76762;BME280;65705;51.032;13.790;2023-09-08T08:50:29;100901.13;;;22.55;57.71
76762;BME280;65705;51.032;13.790;2023-09-08T08:52:56;100897.38;;;22.63;57.67
76762;BME280;65705;51.032;13.790;2023-09-08T08:55:23;100902.47;;;22.71;57.35
76762;BME280;65705;51.032;13.790;2023-09-08T08:57:51;100892.53;;;22.78;56.98
76762;BME280;65705;51.032;13.790;2023-09-08T09:00:17;100896.19;;;22.83;56.80
76762;BME280;65705;51.032;13.790;2023-09-08T09:02:44;100898.19;;;22.88;56.40
76762;BME280;65705;51.032;13.790;2023-09-08T09:05:13;100890.31;;;22.93;56.63
76762;BME280;65705;51.032;13.790;2023-09-08T09:07:41;100890.28;;;22.99;55.84
76762;BME280;65705;51.032;13.790;2023-09-08T09:10:07;100888.34;;;23.07;55.68
76762;BME280;65705;51.032;13.790;2023-09-08T09:12:33;100887.44;;;23.13;55.41
76762;BME280;65705;51.032;13.790;2023-09-08T09:14:59;100883.88;;;23.19;55.18
76762;BME280;65705;51.032;13.790;2023-09-08T09:17:25;100876.00;;;23.24;54.75
76762;BME280;65705;51.032;13.790;2023-09-08T09:20:12;100882.97;;;23.31;54.57
76762;BME280;65705;51.032;13.790;2023-09-08T09:22:37;100876.88;;;23.42;54.41
76762;BME280;65705;51.032;13.790;2023-09-08T09:25:03;100879.69;;;23.47;54.17
76762;BME280;65705;51.032;13.790;2023-09-08T09:27:33;100878.56;;;23.55;54.16
76762;BME280;65705;51.032;13.790;2023-09-08T09:30:00;100869.84;;;23.59;53.75
76762;BME280;65705;51.032;13.790;2023-09-08T09:32:26;100856.97;;;23.68;53.68
76762;BME280;65705;51.032;13.790;2023-09-08T09:34:54;100863.88;;;23.75;53.22
76762;BME280;65705;51.032;13.790;2023-09-08T09:37:22;100871.84;;;23.82;52.45
76762;BME280;65705;51.032;13.790;2023-09-08T09:39:57;100864.75;;;23.87;52.45
76762;BME280;65705;51.032;13.790;2023-09-08T09:42:23;100866.97;;;23.90;53.32
76762;BME280;65705;51.032;13.790;2023-09-08T09:44:49;100860.72;;;23.96;49.54
76762;BME280;65705;51.032;13.790;2023-09-08T09:47:17;100862.06;;;24.06;48.25
76762;BME280;65705;51.032;13.790;2023-09-08T09:49:48;100866.41;;;24.18;47.63
76762;BME280;65705;51.032;13.790;2023-09-08T09:52:23;100862.44;;;24.21;46.23
76762;BME280;65705;51.032;13.790;2023-09-08T09:54:49;100854.44;;;24.32;46.12
76762;BME280;65705;51.032;13.790;2023-09-08T09:57:20;100861.69;;;24.43;43.93
76762;BME280;65705;51.032;13.790;2023-09-08T09:59:47;100862.63;;;24.49;43.81
76762;BME280;65705;51.032;13.790;2023-09-08T10:02:17;100861.69;;;24.55;43.37
76762;BME280;65705;51.032;13.790;2023-09-08T10:04:47;100859.72;;;24.62;43.79
76762;BME280;65705;51.032;13.790;2023-09-08T10:07:14;100862.53;;;24.67;43.28
76762;BME280;65705;51.032;13.790;2023-09-08T10:09:40;100852.38;;;24.69;43.38
76762;BME280;65705;51.032;13.790;2023-09-08T10:12:08;100860.56;;;24.74;42.53
76762;BME280;65705;51.032;13.790;2023-09-08T10:14:41;100862.34;;;24.80;42.28
76762;BME280;65705;51.032;13.790;2023-09-08T10:17:12;100856.84;;;24.86;42.09
76762;BME280;65705;51.032;13.790;2023-09-08T10:19:40;100859.66;;;24.91;41.66
76762;BME280;65705;51.032;13.790;2023-09-08T10:22:11;100859.19;;;24.94;41.37
76762;BME280;65705;51.032;13.790;2023-09-08T10:24:39;100856.13;;;25.02;41.34
76762;BME280;65705;51.032;13.790;2023-09-08T10:27:09;100857.31;;;25.07;41.82
76762;BME280;65705;51.032;13.790;2023-09-08T10:29:36;100854.16;;;25.10;41.50
76762;BME280;65705;51.032;13.790;2023-09-08T10:32:03;100854.50;;;25.13;41.37
76762;BME280;65705;51.032;13.790;2023-09-08T10:34:30;100851.94;;;25.18;40.44
76762;BME280;65705;51.032;13.790;2023-09-08T10:36:58;100844.22;;;25.22;40.76
76762;BME280;65705;51.032;13.790;2023-09-08T10:39:34;100850.28;;;25.29;40.25
76762;BME280;65705;51.032;13.790;2023-09-08T10:44:43;100835.66;;;25.36;39.49
76762;BME280;65705;51.032;13.790;2023-09-08T10:47:10;100830.91;;;25.38;39.66
76762;BME280;65705;51.032;13.790;2023-09-08T10:49:38;100833.09;;;25.41;39.37
76762;BME280;65705;51.032;13.790;2023-09-08T10:52:11;100829.91;;;25.44;39.23
76762;BME280;65705;51.032;13.790;2023-09-08T10:54:48;100827.56;;;25.48;38.93
76762;BME280;65705;51.032;13.790;2023-09-08T10:57:15;100824.97;;;25.53;38.86
76762;BME280;65705;51.032;13.790;2023-09-08T10:59:52;100816.91;;;25.53;38.91
76762;BME280;65705;51.032;13.790;2023-09-08T11:05:02;100829.91;;;25.56;38.96
76762;BME280;65705;51.032;13.790;2023-09-08T11:07:31;100824.84;;;25.59;38.63
76762;BME280;65705;51.032;13.790;2023-09-08T11:09:59;100827.88;;;25.63;38.95
76762;BME280;65705;51.032;13.790;2023-09-08T11:12:29;100827.16;;;25.67;38.37
76762;BME280;65705;51.032;13.790;2023-09-08T11:14:55;100818.28;;;25.67;38.89
76762;BME280;65705;51.032;13.790;2023-09-08T11:17:25;100826.13;;;25.68;38.74
76762;BME280;65705;51.032;13.790;2023-09-08T11:19:51;100822.94;;;25.71;38.47
76762;BME280;65705;51.032;13.790;2023-09-08T11:22:17;100824.34;;;25.74;38.71
76762;BME280;65705;51.032;13.790;2023-09-08T11:24:44;100811.81;;;25.79;39.03
76762;BME280;65705;51.032;13.790;2023-09-08T11:27:11;100816.44;;;25.84;39.15
76762;BME280;65705;51.032;13.790;2023-09-08T11:29:38;100815.50;;;25.90;39.01
76762;BME280;65705;51.032;13.790;2023-09-08T11:32:09;100816.16;;;25.97;38.65
76762;BME280;65705;51.032;13.790;2023-09-08T11:34:35;100805.38;;;25.97;38.47
76762;BME280;65705;51.032;13.790;2023-09-08T11:37:15;100808.66;;;25.99;38.18
76762;BME280;65705;51.032;13.790;2023-09-08T11:39:45;100808.41;;;26.00;38.22
76762;BME280;65705;51.032;13.790;2023-09-08T11:42:15;100804.06;;;25.99;38.34
76762;BME280;65705;51.032;13.790;2023-09-08T11:44:42;100807.34;;;26.01;38.12
76762;BME280;65705;51.032;13.790;2023-09-08T11:47:09;100807.94;;;26.03;38.11
76762;BME280;65705;51.032;13.790;2023-09-08T11:49:40;100800.44;;;26.06;38.39
76762;BME280;65705;51.032;13.790;2023-09-08T11:52:06;100798.66;;;26.11;38.64
76762;BME280;65705;51.032;13.790;2023-09-08T11:54:34;100797.91;;;26.16;38.53
76762;BME280;65705;51.032;13.790;2023-09-08T11:57:01;100802.84;;;26.19;37.94
76762;BME280;65705;51.032;13.790;2023-09-08T11:59:28;100796.72;;;26.23;37.63
76762;BME280;65705;51.032;13.790;2023-09-08T12:01:55;100801.38;;;26.28;37.53
76762;BME280;65705;51.032;13.790;2023-09-08T12:04:22;100793.88;;;26.30;38.54
76762;BME280;65705;51.032;13.790;2023-09-08T12:06:48;100798.19;;;26.31;37.90
76762;BME280;65705;51.032;13.790;2023-09-08T12:09:15;100800.06;;;26.30;38.22
76762;BME280;65705;51.032;13.790;2023-09-08T12:11:42;100794.09;;;26.28;38.86
76762;BME280;65705;51.032;13.790;2023-09-08T12:14:12;100793.94;;;26.35;39.04
76762;BME280;65705;51.032;13.790;2023-09-08T12:16:39;100797.53;;;26.40;38.88
76762;BME280;65705;51.032;13.790;2023-09-08T12:19:06;100795.66;;;26.41;38.33
76762;BME280;65705;51.032;13.790;2023-09-08T12:21:55;100789.28;;;26.47;38.39
76762;BME280;65705;51.032;13.790;2023-09-08T12:27:19;100774.84;;;26.53;38.65
76762;BME280;65705;51.032;13.790;2023-09-08T12:29:55;100775.97;;;26.57;38.85
76762;BME280;65705;51.032;13.790;2023-09-08T12:32:22;100776.78;;;26.57;38.35
76762;BME280;65705;51.032;13.790;2023-09-08T12:34:48;100773.38;;;26.62;38.08
76762;BME280;65705;51.032;13.790;2023-09-08T12:37:14;100778.41;;;26.75;37.94
76762;BME280;65705;51.032;13.790;2023-09-08T12:39:40;100771.47;;;26.79;37.62
76762;BME280;65705;51.032;13.790;2023-09-08T12:42:05;100762.88;;;26.82;35.95
76762;BME280;65705;51.032;13.790;2023-09-08T12:44:31;100757.59;;;26.87;35.86
76762;BME280;65705;51.032;13.790;2023-09-08T12:46:57;100757.06;;;26.90;35.07
76762;BME280;65705;51.032;13.790;2023-09-08T12:49:22;100755.44;;;26.89;34.65
76762;BME280;65705;51.032;13.790;2023-09-08T12:51:48;100754.94;;;26.92;34.64